< < Back
Terminal Aerodrome Forecast


Current Version              Previous Versions:   1  2  3  4  5  6  7  8  9  

Terminal Aerodrome Forecast

802
FTUS44 KMRX 310523
TAFTYS
TAF
KTYS 310523Z 3106/0106 02005KT P6SM SCT250
     FM311700 04004KT P6SM BKN150=

Latest METAR

312
SAUS80 KWBC 010658
MTRTYS
METAR KTYS 010653Z 00000KT 10SM OVC120 03/M04 A3022 RMK AO2 SLP238
T00281039


USA.gov is the U.S. government's official web portal to all federal, state and local government web resources and services.